Time;durP1;ratioP1;P1;durP2;ratioP2;P2;SDS_P1;SDS_P2;PMS_P1;PMS_P2;Temp;Humidity;BMP_temperature;BMP_pressure;BME280_temperature;BME280_humidity;BME280_pressure;Samples;Min_cycle;Max_cycle;Signal;HPM_P1;HPM_P2
2022/10/21 00:04:43;;;;;;;34.23;21.93;;;;;15.60;98633.00;;;;16637374;28;20600;-48
2022/10/21 00:12:47;;;;;;;29.80;24.10;;;;;15.60;98635.00;;;;16626821;28;20345;-48
2022/10/21 00:20:49;;;;;;;31.63;23.97;;;;;15.50;98632.00;;;;16631703;28;20573;-48
2022/10/21 00:28:56;;;;;;;29.33;23.07;;;;;15.60;98640.00;;;;16631176;28;20701;-48
2022/10/21 00:36:59;;;;;;;25.17;21.07;;;;;15.40;98658.00;;;;16633859;28;20232;-49
2022/10/21 00:45:21;;;;;;;31.13;24.80;;;;;15.50;98649.00;;;;16631920;28;20758;-49
2022/10/21 00:53:25;;;;;;;25.07;21.67;;;;;15.60;98625.00;;;;16635728;28;20983;-48
2022/10/21 01:01:29;;;;;;;28.20;22.20;;;;;15.10;98643.00;;;;16630351;28;20401;-48
2022/10/21 01:09:31;;;;;;;31.97;21.90;;;;;15.20;98642.00;;;;16632897;28;20229;-48
2022/10/21 01:17:42;;;;;;;26.60;21.90;;;;;15.50;98640.00;;;;16630436;28;20240;-48
2022/10/21 01:26:23;;;;;;;33.73;22.77;;;;;15.50;98632.00;;;;16627835;28;20300;-47
2022/10/21 01:34:31;;;;;;;28.63;20.70;;;;;15.70;98617.00;;;;16624228;28;20396;-48
2022/10/21 01:42:39;;;;;;;30.37;21.57;;;;;15.00;98606.00;;;;16630160;28;20282;-46
2022/10/21 01:50:46;;;;;;;29.70;20.73;;;;;15.40;98623.00;;;;16637989;28;20361;-48
2022/10/21 01:58:49;;;;;;;32.30;23.47;;;;;15.10;98627.00;;;;16637070;28;20306;-48
2022/10/21 02:06:53;;;;;;;36.83;22.97;;;;;15.30;98633.00;;;;16644363;28;20554;-48
2022/10/21 02:14:56;;;;;;;27.03;20.70;;;;;15.60;98609.00;;;;16635942;28;20254;-49
2022/10/21 02:23:00;;;;;;;29.77;22.10;;;;;16.20;98572.00;;;;16633114;28;20218;-48
2022/10/21 02:31:11;;;;;;;26.00;21.30;;;;;15.70;98546.00;;;;16634701;28;20226;-48
2022/10/21 02:39:19;;;;;;;28.10;21.53;;;;;16.50;98531.00;;;;16633158;28;20224;-48
2022/10/21 02:47:21;;;;;;;26.50;20.93;;;;;16.90;98499.00;;;;16638976;28;20234;-48
2022/10/21 02:55:25;;;;;;;25.67;20.00;;;;;15.60;98510.00;;;;16640701;28;20808;-48
2022/10/21 03:03:29;;;;;;;29.97;22.03;;;;;16.20;98502.00;;;;16631091;28;20298;-48
2022/10/21 03:11:33;;;;;;;23.57;19.23;;;;;16.60;98487.00;;;;16632464;28;20235;-49
2022/10/21 03:19:35;;;;;;;24.90;21.77;;;;;16.90;98458.00;;;;16636010;28;20279;-48
2022/10/21 03:27:39;;;;;;;34.67;24.47;;;;;16.50;98465.00;;;;16636944;28;20313;-48
2022/10/21 03:35:42;;;;;;;26.87;22.97;;;;;16.40;98454.00;;;;16634988;28;20230;-48
2022/10/21 03:43:46;;;;;;;31.20;22.63;;;;;16.30;98458.00;;;;16630365;28;20365;-48
2022/10/21 03:51:49;;;;;;;27.13;22.60;;;;;16.30;98456.00;;;;16617120;28;20233;-48
2022/10/21 03:59:55;;;;;;;27.60;20.80;;;;;16.40;98453.00;;;;16634187;28;20218;-48
2022/10/21 04:07:57;;;;;;;29.63;21.63;;;;;16.30;98450.00;;;;16637490;28;20230;-48
2022/10/21 04:16:02;;;;;;;24.63;20.00;;;;;16.60;98440.00;;;;16635722;28;20357;-48
2022/10/21 04:24:05;;;;;;;25.80;20.30;;;;;16.60;98424.00;;;;16638284;28;20214;-48
2022/10/21 04:32:09;;;;;;;25.10;20.53;;;;;16.70;98408.00;;;;16633065;28;20223;-48
2022/10/21 04:40:12;;;;;;;22.60;20.13;;;;;16.80;98397.00;;;;16633337;28;20316;-48
2022/10/21 04:48:16;;;;;;;23.13;20.63;;;;;16.80;98400.00;;;;16639562;28;20225;-48
2022/10/21 04:56:18;;;;;;;27.30;19.43;;;;;16.60;98389.00;;;;16614116;28;20750;-47
2022/10/21 05:04:22;;;;;;;25.00;19.23;;;;;16.50;98397.00;;;;16641130;28;20215;-48
2022/10/21 05:12:24;;;;;;;23.23;19.33;;;;;16.50;98399.00;;;;16628900;28;20313;-48
2022/10/21 05:20:28;;;;;;;26.20;19.90;;;;;16.40;98395.00;;;;16625186;28;20300;-48
2022/10/21 05:28:30;;;;;;;24.23;18.80;;;;;16.50;98392.00;;;;16624561;28;20302;-48
2022/10/21 05:36:34;;;;;;;25.20;19.87;;;;;16.50;98391.00;;;;16638895;28;20230;-47
2022/10/21 05:44:37;;;;;;;23.50;21.10;;;;;16.60;98381.00;;;;16632231;28;20223;-47
2022/10/21 05:52:41;;;;;;;28.73;20.47;;;;;16.60;98369.00;;;;16592738;28;20578;-48
2022/10/21 06:00:43;;;;;;;25.07;19.20;;;;;16.50;98386.00;;;;16602313;28;20708;-47
2022/10/21 06:08:47;;;;;;;18.93;16.93;;;;;16.70;98383.00;;;;16606822;28;20657;-48
2022/10/21 06:16:50;;;;;;;27.53;16.77;;;;;16.70;98385.00;;;;16635156;28;20318;-47
2022/10/21 06:24:53;;;;;;;20.73;16.93;;;;;16.70;98385.00;;;;16611426;28;20250;-47
2022/10/21 06:32:56;;;;;;;21.37;15.70;;;;;16.80;98391.00;;;;16609162;28;20226;-47
2022/10/21 06:41:04;;;;;;;17.40;14.97;;;;;16.70;98399.00;;;;16614803;28;20302;-47
2022/10/21 06:49:06;;;;;;;18.30;15.83;;;;;16.90;98403.00;;;;16649664;28;20223;-48
2022/10/21 06:57:10;;;;;;;22.57;15.43;;;;;16.80;98418.00;;;;16650863;28;20887;-48
2022/10/21 07:05:12;;;;;;;16.03;13.80;;;;;16.90;98466.00;;;;16639175;28;20269;-47
2022/10/21 07:13:16;;;;;;;23.93;15.17;;;;;17.00;98434.00;;;;16641793;28;20396;-47
2022/10/21 07:21:20;;;;;;;20.27;15.87;;;;;17.20;98427.00;;;;16629249;28;20299;-47
2022/10/21 07:29:24;;;;;;;17.13;14.50;;;;;17.30;98397.00;;;;16599644;28;20306;-48
2022/10/21 07:37:26;;;;;;;16.33;13.43;;;;;17.10;98371.00;;;;16646935;22;20231;-48
2022/10/21 07:45:31;;;;;;;16.50;13.27;;;;;17.40;98416.00;;;;16629133;28;20227;-48
2022/10/21 07:53:34;;;;;;;13.63;12.20;;;;;17.50;98435.00;;;;16579657;28;20296;-47
2022/10/21 08:01:39;;;;;;;14.80;13.30;;;;;17.50;98437.00;;;;16578720;28;20230;-48
2022/10/21 08:09:41;;;;;;;16.63;14.87;;;;;17.60;98434.00;;;;16575661;28;20600;-48
2022/10/21 08:17:45;;;;;;;18.03;14.87;;;;;17.50;98438.00;;;;16574512;28;21035;-47
2022/10/21 08:25:48;;;;;;;21.80;14.90;;;;;17.50;98430.00;;;;16580455;28;20647;-47
2022/10/21 08:33:51;;;;;;;21.50;15.20;;;;;17.70;98400.00;;;;16570722;28;20234;-48
2022/10/21 08:42:05;;;;;;;14.97;12.70;;;;;17.70;98386.00;;;;16558752;28;20346;-47
2022/10/21 08:50:14;;;;;;;14.60;12.57;;;;;17.70;98358.00;;;;16570933;28;20235;-48
2022/10/21 08:58:19;;;;;;;19.20;14.33;;;;;17.90;98380.00;;;;16582139;28;20306;-47
2022/10/21 09:06:24;;;;;;;18.50;13.50;;;;;17.30;98425.00;;;;16584441;28;20310;-47
2022/10/21 09:15:04;;;;;;;15.53;13.53;;;;;18.00;98414.00;;;;16590993;28;20219;-47
2022/10/21 09:23:28;;;;;;;18.33;12.77;;;;;18.40;98474.00;;;;16586403;28;20196;-48
2022/10/21 09:31:31;;;;;;;13.50;6.87;;;;;18.40;98485.00;;;;16589205;28;20325;-48
2022/10/21 09:39:40;;;;;;;10.73;7.57;;;;;19.00;98474.00;;;;16566682;28;20334;-47
2022/10/21 09:47:43;;;;;;;14.73;9.23;;;;;19.40;98476.00;;;;16586322;28;20773;-48
2022/10/21 09:55:48;;;;;;;8.03;7.23;;;;;19.70;98485.00;;;;16582595;28;20219;-48
2022/10/21 10:03:52;;;;;;;8.13;7.43;;;;;19.80;98490.00;;;;16589745;28;20205;-49
2022/10/21 10:11:58;;;;;;;10.77;6.93;;;;;19.90;98498.00;;;;16588525;28;20765;-48
2022/10/21 10:20:16;;;;;;;7.00;6.10;;;;;20.00;98502.00;;;;16589383;28;20353;-48
2022/10/21 10:28:23;;;;;;;7.70;4.20;;;;;20.00;98511.00;;;;16582946;28;20592;-48
2022/10/21 10:36:29;;;;;;;7.57;3.50;;;;;19.70;98501.00;;;;16581475;28;20702;-49
2022/10/21 10:44:36;;;;;;;5.00;3.17;;;;;19.70;98523.00;;;;16568877;28;20673;-48
2022/10/21 10:52:38;;;;;;;4.40;2.80;;;;;19.90;98521.00;;;;16570296;28;20273;-48
2022/10/21 11:00:44;;;;;;;6.80;4.40;;;;;20.10;98519.00;;;;16582034;28;20223;-49
2022/10/21 11:08:50;;;;;;;6.80;3.37;;;;;20.10;98508.00;;;;16575020;28;20226;-48
2022/10/21 11:17:07;;;;;;;5.03;3.20;;;;;20.40;98514.00;;;;16566089;28;20703;-48
2022/10/21 11:25:18;;;;;;;6.87;3.87;;;;;20.70;98519.00;;;;16563678;28;20688;-48
2022/10/21 11:33:32;;;;;;;7.47;4.10;;;;;20.70;98527.00;;;;16569378;28;20334;-48
2022/10/21 11:41:39;;;;;;;5.63;3.00;;;;;20.50;98509.00;;;;16582240;28;20235;-48
2022/10/21 11:49:52;;;;;;;5.73;2.90;;;;;20.80;98506.00;;;;16569397;28;20321;-48
2022/10/21 11:58:01;;;;;;;6.97;3.00;;;;;21.10;98502.00;;;;16557201;28;20306;-49
2022/10/21 12:06:12;;;;;;;4.63;2.27;;;;;20.90;98503.00;;;;16572999;28;20236;-48
2022/10/21 12:14:24;;;;;;;3.33;2.30;;;;;20.90;98505.00;;;;16569545;28;20228;-49
2022/10/21 12:22:30;;;;;;;2.87;2.40;;;;;21.30;98509.00;;;;16570043;28;20258;-49
2022/10/21 12:30:39;;;;;;;5.20;2.90;;;;;21.20;98516.00;;;;16564931;28;20221;-49
2022/10/21 12:38:49;;;;;;;4.27;2.20;;;;;20.90;98511.00;;;;16572232;28;20322;-49
2022/10/21 12:46:53;;;;;;;4.47;2.17;;;;;20.90;98521.00;;;;16573554;28;20222;-49
2022/10/21 12:54:59;;;;;;;3.97;1.93;;;;;21.00;98518.00;;;;16580325;28;20223;-49
2022/10/21 13:03:03;;;;;;;5.43;2.63;;;;;20.70;98508.00;;;;16575255;28;20203;-47
2022/10/21 13:11:23;;;;;;;6.03;2.07;;;;;20.80;98494.00;;;;16576693;28;20241;-48
2022/10/21 13:19:43;;;;;;;4.60;2.80;;;;;21.00;98504.00;;;;16564590;28;20338;-49
2022/10/21 13:27:51;;;;;;;3.80;2.30;;;;;20.90;98501.00;;;;16568892;28;20224;-49
2022/10/21 13:35:56;;;;;;;4.77;2.10;;;;;20.30;98496.00;;;;16569762;28;20903;-49
2022/10/21 13:44:00;;;;;;;3.10;2.00;;;;;20.00;98499.00;;;;16567059;28;20218;-49
2022/10/21 13:52:04;;;;;;;1.33;1.23;;;;;19.70;98493.00;;;;16576784;28;20230;-50
2022/10/21 14:00:17;;;;;;;3.90;1.60;;;;;19.70;98493.00;;;;16580235;28;20222;-48
2022/10/21 14:08:25;;;;;;;2.50;1.70;;;;;19.80;98485.00;;;;16580224;28;20233;-49
2022/10/21 14:16:32;;;;;;;3.40;1.63;;;;;19.80;98485.00;;;;16578479;28;20227;-49
2022/10/21 14:24:37;;;;;;;3.10;1.77;;;;;19.80;98462.00;;;;16585590;28;20215;-49
2022/10/21 14:32:42;;;;;;;3.27;1.67;;;;;19.70;98462.00;;;;16583625;28;20228;-49
2022/10/21 14:40:54;;;;;;;3.30;2.00;;;;;19.60;98477.00;;;;16578207;28;20314;-49
2022/10/21 14:49:02;;;;;;;1.40;1.30;;;;;19.70;98463.00;;;;16587728;28;20315;-49
2022/10/21 14:57:04;;;;;;;3.60;2.90;;;;;19.60;98459.00;;;;16583368;28;20318;-49
2022/10/21 15:05:28;;;;;;;2.93;1.50;;;;;19.40;98477.00;;;;16570774;28;20758;-48
2022/10/21 15:13:31;;;;;;;1.70;1.20;;;;;19.40;98464.00;;;;16570115;28;20218;-49
2022/10/21 15:21:37;;;;;;;3.67;1.50;;;;;19.40;98466.00;;;;16573092;28;20288;-48
2022/10/21 15:29:44;;;;;;;2.10;1.20;;;;;19.40;98456.00;;;;16578985;28;20230;-48
2022/10/21 15:37:49;;;;;;;3.07;1.23;;;;;19.30;98449.00;;;;16579784;28;20256;-48
2022/10/21 15:45:53;;;;;;;2.07;1.30;;;;;19.40;98462.00;;;;16581125;28;20310;-48
2022/10/21 15:53:56;;;;;;;3.93;1.20;;;;;19.30;98447.00;;;;16585215;22;20234;-76
2022/10/21 16:02:00;;;;;;;2.70;1.50;;;;;19.20;98444.00;;;;16645453;28;20252;-75
2022/10/21 16:10:16;;;;;;;4.13;1.83;;;;;19.20;98448.00;;;;16600990;28;20246;-81
2022/10/21 16:18:18;;;;;;;1.33;1.17;;;;;19.20;98437.00;;;;16632685;28;20223;-80
2022/10/21 16:26:24;;;;;;;2.20;1.37;;;;;19.10;98453.00;;;;16626499;28;20552;-80
2022/10/21 16:34:26;;;;;;;2.03;0.90;;;;;19.10;98464.00;;;;16648893;22;20654;-49
2022/10/21 16:42:30;;;;;;;1.47;1.00;;;;;19.10;98466.00;;;;16635917;28;20197;-48
2022/10/21 16:50:38;;;;;;;1.40;0.90;;;;;19.00;98470.00;;;;16626590;28;20246;-48
2022/10/21 16:58:42;;;;;;;1.17;1.00;;;;;19.00;98477.00;;;;16626082;28;20226;-49
2022/10/21 17:06:44;;;;;;;1.57;1.00;;;;;19.10;98463.00;;;;16615360;28;20229;-48
2022/10/21 17:14:48;;;;;;;2.80;0.83;;;;;19.00;98466.00;;;;16631324;28;20226;-48
2022/10/21 17:22:50;;;;;;;7.20;6.60;;;;;19.10;98474.00;;;;16630222;28;20201;-49
2022/10/21 17:30:55;;;;;;;2.90;1.87;;;;;19.10;98474.00;;;;16639151;28;20360;-48
2022/10/21 17:38:58;;;;;;;2.80;1.90;;;;;19.10;98473.00;;;;16608597;28;20594;-48
2022/10/21 17:47:01;;;;;;;1.53;1.20;;;;;19.10;98473.00;;;;16626673;28;20222;-48
2022/10/21 17:55:05;;;;;;;7.40;4.67;;;;;19.10;98465.00;;;;16610292;28;20760;-48
2022/10/21 18:03:09;;;;;;;5.27;4.13;;;;;19.10;98462.00;;;;16637046;28;21005;-48
2022/10/21 18:11:14;;;;;;;1.57;1.27;;;;;19.10;98458.00;;;;16626985;28;20742;-49
2022/10/21 18:19:18;;;;;;;2.33;1.77;;;;;19.20;98450.00;;;;16632874;28;20227;-49
2022/10/21 18:27:20;;;;;;;3.07;1.30;;;;;19.00;98430.00;;;;16638555;28;20219;-49
2022/10/21 18:35:24;;;;;;;6.50;3.20;;;;;19.00;98425.00;;;;16630973;28;20233;-49
2022/10/21 18:43:26;;;;;;;1.70;1.60;;;;;19.10;98419.00;;;;16636910;28;20693;-49
2022/10/21 18:51:30;;;;;;;6.67;2.10;;;;;19.00;98427.00;;;;16633412;28;20233;-48
2022/10/21 18:59:33;;;;;;;5.83;1.60;;;;;19.00;98423.00;;;;16626794;28;20231;-48
2022/10/21 19:07:36;;;;;;;4.87;2.80;;;;;19.00;98426.00;;;;16632142;28;20222;-50
2022/10/21 19:15:40;;;;;;;3.50;2.37;;;;;19.20;98427.00;;;;16628419;28;20234;-48
2022/10/21 19:23:43;;;;;;;2.97;2.17;;;;;19.20;98445.00;;;;16623778;28;20211;-49
2022/10/21 19:31:46;;;;;;;2.63;1.77;;;;;19.10;98426.00;;;;16636186;28;20225;-49
2022/10/21 19:39:50;;;;;;;2.53;1.87;;;;;19.20;98444.00;;;;16634066;28;20240;-50
2022/10/21 19:47:53;;;;;;;3.20;2.53;;;;;19.20;98454.00;;;;16644110;28;20355;-49
2022/10/21 19:55:56;;;;;;;3.43;3.00;;;;;19.20;98461.00;;;;16605685;28;20633;-49
2022/10/21 20:04:00;;;;;;;3.47;2.60;;;;;19.20;98458.00;;;;16610116;28;20206;-49
2022/10/21 20:12:04;;;;;;;2.17;1.97;;;;;19.60;98469.00;;;;16610828;28;20301;-49
2022/10/21 20:20:07;;;;;;;2.63;2.00;;;;;19.20;98473.00;;;;16608760;28;20214;-49
2022/10/21 20:28:11;;;;;;;4.93;2.60;;;;;19.00;98475.00;;;;16603070;28;20221;-49
2022/10/21 20:36:16;;;;;;;2.20;2.00;;;;;19.10;98491.00;;;;16619239;28;20230;-49
2022/10/21 20:44:20;;;;;;;9.13;2.60;;;;;19.00;98497.00;;;;16646651;28;20251;-49
2022/10/21 20:52:22;;;;;;;5.57;3.00;;;;;19.00;98515.00;;;;16646922;28;20226;-49
2022/10/21 21:00:26;;;;;;;5.57;2.90;;;;;18.90;98502.00;;;;16644521;28;20231;-49
2022/10/21 21:08:28;;;;;;;4.83;2.87;;;;;18.90;98516.00;;;;16633972;28;20227;-48
2022/10/21 21:16:33;;;;;;;2.50;2.30;;;;;18.60;98510.00;;;;16615551;28;20249;-49
2022/10/21 21:24:35;;;;;;;4.33;3.20;;;;;19.00;98534.00;;;;16606891;28;20689;-49
2022/10/21 21:32:39;;;;;;;3.73;2.93;;;;;18.90;98556.00;;;;16608053;28;20804;-49
2022/10/21 21:40:43;;;;;;;4.10;2.77;;;;;18.60;98565.00;;;;16639633;28;20725;-48
2022/10/21 21:48:47;;;;;;;4.77;3.73;;;;;18.50;98577.00;;;;16638031;28;20231;-49
2022/10/21 21:56:49;;;;;;;3.70;3.27;;;;;18.40;98582.00;;;;16642571;28;20226;-49
2022/10/21 22:04:53;;;;;;;4.87;2.97;;;;;18.60;98568.00;;;;16646214;28;20808;-48
2022/10/21 22:12:56;;;;;;;2.77;2.40;;;;;18.50;98588.00;;;;16619400;28;20872;-48
2022/10/21 22:21:01;;;;;;;5.97;1.90;;;;;18.30;98563.00;;;;16630457;28;20307;-49
2022/10/21 22:29:03;;;;;;;5.00;3.23;;;;;18.40;98571.00;;;;16623967;28;20361;-47
2022/10/21 22:37:07;;;;;;;4.80;3.80;;;;;18.30;98576.00;;;;16623214;28;20238;-48
2022/10/21 22:45:10;;;;;;;5.60;3.57;;;;;18.10;98590.00;;;;16626969;28;20587;-48
2022/10/21 22:53:14;;;;;;;3.20;2.20;;;;;17.70;98603.00;;;;16634842;28;20235;-49
2022/10/21 23:01:16;;;;;;;5.00;2.67;;;;;17.90;98610.00;;;;16640573;28;20297;-48
2022/10/21 23:09:20;;;;;;;3.37;1.40;;;;;17.60;98622.00;;;;16634792;28;20226;-48
2022/10/21 23:17:24;;;;;;;5.13;2.53;;;;;17.60;98626.00;;;;16634231;28;20233;-48
2022/10/21 23:25:28;;;;;;;5.63;1.90;;;;;17.80;98639.00;;;;16633511;28;20241;-49
2022/10/21 23:33:30;;;;;;;2.20;1.50;;;;;17.10;98654.00;;;;16630086;28;20231;-50
2022/10/21 23:41:34;;;;;;;1.10;1.00;;;;;17.70;98643.00;;;;16600426;28;20224;-48
2022/10/21 23:49:37;;;;;;;1.93;1.30;;;;;17.50;98648.00;;;;16599896;28;20218;-48
2022/10/21 23:57:40;;;;;;;1.90;1.00;;;;;17.10;98654.00;;;;16599758;28;20701;-49
